Time;durP1;ratioP1;P1;durP2;ratioP2;P2;SDS_P1;SDS_P2;PMS_P1;PMS_P2;Temp;Humidity;BMP_temperature;BMP_pressure;BME280_temperature;BME280_humidity;BME280_pressure;Samples;Min_cycle;Max_cycle;Signal;HPM_P1;HPM_P2
2023/06/25 00:00:56;;;;;;;24.48;15.35;;;;;;;19.75;100.00;102023.50;5015321;28;20080;-77
2023/06/25 00:03:22;;;;;;;20.88;14.27;;;;;;;19.70;100.00;102021.41;5014412;28;20116;-76
2023/06/25 00:05:48;;;;;;;19.40;14.10;;;;;;;19.72;100.00;102018.44;5014786;28;20026;-78
2023/06/25 00:08:13;;;;;;;22.15;15.50;;;;;;;19.72;100.00;102015.72;5010172;28;20033;-78
2023/06/25 00:10:39;;;;;;;21.52;15.32;;;;;;;19.68;100.00;102012.59;5002017;28;20495;-77
2023/06/25 00:13:04;;;;;;;20.30;14.55;;;;;;;19.66;100.00;102013.81;4996935;28;20025;-77
2023/06/25 00:15:29;;;;;;;21.85;14.85;;;;;;;19.67;100.00;102015.53;5013190;28;20022;-77
2023/06/25 00:17:55;;;;;;;20.58;13.30;;;;;;;19.69;100.00;102005.22;5014126;28;20029;-78
2023/06/25 00:20:22;;;;;;;20.67;14.52;;;;;;;19.69;100.00;102007.94;5012219;28;20091;-78
2023/06/25 00:22:47;;;;;;;20.17;14.27;;;;;;;19.70;100.00;102002.28;5013222;28;20061;-77
2023/06/25 00:25:14;;;;;;;23.75;16.20;;;;;;;19.71;100.00;102003.97;5013858;28;20030;-77
2023/06/25 00:27:40;;;;;;;21.77;14.20;;;;;;;19.70;100.00;102004.19;5013916;28;20467;-77
2023/06/25 00:30:07;;;;;;;23.95;15.63;;;;;;;19.68;100.00;101990.72;5014603;28;20032;-78
2023/06/25 00:32:33;;;;;;;30.33;18.23;;;;;;;19.64;100.00;101988.59;5010952;28;20038;-78
2023/06/25 00:35:00;;;;;;;25.85;17.05;;;;;;;19.61;100.00;101986.31;4995748;28;20031;-78
2023/06/25 00:37:25;;;;;;;28.30;19.47;;;;;;;19.59;100.00;101996.59;5002971;28;20247;-78
2023/06/25 00:39:51;;;;;;;28.27;18.10;;;;;;;19.57;100.00;101987.81;5014995;28;20033;-77
2023/06/25 00:42:16;;;;;;;31.05;19.63;;;;;;;19.53;100.00;101982.75;5013035;28;20087;-78
2023/06/25 00:44:42;;;;;;;28.13;17.92;;;;;;;19.50;100.00;101985.91;5016033;28;20129;-77
2023/06/25 00:47:13;;;;;;;30.88;18.67;;;;;;;19.48;100.00;101974.38;5014331;28;20115;-77
2023/06/25 00:49:42;;;;;;;27.38;18.73;;;;;;;19.52;100.00;101986.53;5021245;28;20040;-77
2023/06/25 00:52:10;;;;;;;26.75;17.63;;;;;;;19.52;100.00;101983.81;5033977;28;20025;-77
2023/06/25 00:54:38;;;;;;;28.38;19.42;;;;;;;19.46;100.00;101971.03;5033932;28;20022;-78
2023/06/25 00:57:04;;;;;;;30.98;18.55;;;;;;;19.47;100.00;101985.50;5017254;28;20121;-77
2023/06/25 00:59:30;;;;;;;28.87;18.73;;;;;;;19.45;100.00;101969.31;5014687;28;20026;-76
2023/06/25 01:01:59;;;;;;;25.23;18.02;;;;;;;19.46;100.00;101976.47;5032411;28;20759;-75
2023/06/25 01:04:28;;;;;;;30.17;18.02;;;;;;;19.44;100.00;101973.13;5013897;28;20057;-77
2023/06/25 01:06:55;;;;;;;25.92;16.90;;;;;;;19.44;100.00;101967.66;4994781;28;20030;-77
2023/06/25 01:09:22;;;;;;;27.98;16.42;;;;;;;19.46;100.00;101965.56;4994980;28;20038;-77
2023/06/25 01:12:04;;;;;;;26.55;16.13;;;;;;;19.49;100.00;101967.88;4995388;28;20026;-77
2023/06/25 01:14:32;;;;;;;23.90;16.70;;;;;;;19.50;100.00;101966.78;5013011;28;20477;-77
2023/06/25 01:16:58;;;;;;;24.55;17.05;;;;;;;19.53;100.00;101960.91;5012233;28;20027;-77
2023/06/25 01:19:29;;;;;;;25.50;17.15;;;;;;;19.56;100.00;101965.09;4996040;28;20026;-77
2023/06/25 01:21:58;;;;;;;25.02;17.02;;;;;;;19.52;100.00;101958.41;4991919;28;20034;-76
2023/06/25 01:24:23;;;;;;;28.08;17.20;;;;;;;19.48;100.00;101946.22;5010771;28;20026;-75
2023/06/25 01:26:54;;;;;;;29.10;18.05;;;;;;;19.54;100.00;101959.03;4994338;28;20022;-77
2023/06/25 01:29:20;;;;;;;26.85;17.98;;;;;;;19.63;100.00;101949.53;4994766;28;20038;-75
2023/06/25 01:31:45;;;;;;;26.70;17.92;;;;;;;19.66;100.00;101946.41;5013264;28;20034;-78
2023/06/25 01:34:10;;;;;;;27.80;18.95;;;;;;;19.59;100.00;101951.03;5012066;28;20475;-75
2023/06/25 01:36:39;;;;;;;24.45;16.90;;;;;;;19.52;100.00;101942.84;5010212;28;20145;-76
2023/06/25 01:39:06;;;;;;;28.13;18.40;;;;;;;19.51;100.00;101943.09;5012647;28;20057;-76
2023/06/25 01:41:32;;;;;;;29.60;17.63;;;;;;;19.50;100.00;101938.66;5011458;28;20084;-76
2023/06/25 01:43:57;;;;;;;24.65;16.98;;;;;;;19.49;100.00;101948.75;5011914;28;20038;-77
2023/06/25 01:46:23;;;;;;;25.92;17.25;;;;;;;19.51;100.00;101941.19;5010886;28;20033;-77
2023/06/25 01:48:48;;;;;;;31.05;18.20;;;;;;;19.51;100.00;101935.72;5012029;28;20083;-77
2023/06/25 01:51:14;;;;;;;30.10;18.00;;;;;;;19.49;100.00;101923.34;5012765;28;20085;-77
2023/06/25 01:53:39;;;;;;;29.67;18.10;;;;;;;19.49;100.00;101918.72;5013257;28;20034;-78
2023/06/25 01:56:04;;;;;;;26.30;17.95;;;;;;;19.52;100.00;101923.75;4993625;28;20099;-77
2023/06/25 01:58:30;;;;;;;28.00;16.85;;;;;;;19.51;100.00;101922.06;5012094;28;20389;-77
2023/06/25 02:00:55;;;;;;;31.40;17.42;;;;;;;19.54;100.00;101918.06;5011308;28;20059;-76
2023/06/25 02:03:20;;;;;;;28.33;17.00;;;;;;;19.57;100.00;101911.34;5011079;28;20389;-77
2023/06/25 02:05:46;;;;;;;26.25;17.85;;;;;;;19.51;100.00;101908.41;5010827;28;20493;-77
2023/06/25 02:08:11;;;;;;;28.17;17.60;;;;;;;19.47;100.00;101906.31;5011263;28;20103;-77
2023/06/25 02:10:37;;;;;;;24.90;16.38;;;;;;;19.45;100.00;101909.25;5010866;28;20433;-76
2023/06/25 02:13:02;;;;;;;28.48;17.40;;;;;;;19.48;100.00;101900.66;5011046;28;20038;-76
2023/06/25 02:15:28;;;;;;;29.95;18.33;;;;;;;19.43;100.00;101891.41;5011148;28;20258;-76
2023/06/25 02:17:54;;;;;;;27.73;17.20;;;;;;;19.43;100.00;101911.41;5011246;28;20049;-76
2023/06/25 02:20:19;;;;;;;27.27;17.42;;;;;;;19.42;100.00;101896.03;5009771;28;20480;-77
2023/06/25 02:22:47;;;;;;;26.40;17.33;;;;;;;19.40;100.00;101900.88;5010915;28;20365;-76
2023/06/25 02:25:13;;;;;;;32.28;17.90;;;;;;;19.39;100.00;101901.94;5010821;28;20034;-77
2023/06/25 02:27:39;;;;;;;28.13;16.92;;;;;;;19.41;100.00;101894.38;5013109;28;20030;-77
2023/06/25 02:30:05;;;;;;;26.00;16.27;;;;;;;19.39;100.00;101888.28;5010350;28;20033;-76
2023/06/25 02:32:30;;;;;;;26.92;16.92;;;;;;;19.36;100.00;101888.72;5009875;28;20164;-76
2023/06/25 02:34:56;;;;;;;27.52;17.35;;;;;;;19.35;100.00;101889.75;4992656;28;20101;-77
2023/06/25 02:37:21;;;;;;;31.58;18.15;;;;;;;19.35;100.00;101887.03;5009010;28;20427;-77
2023/06/25 02:39:46;;;;;;;23.30;16.38;;;;;;;19.38;100.00;101886.63;5010986;28;20034;-77
2023/06/25 02:42:12;;;;;;;24.00;16.52;;;;;;;19.34;100.00;101888.09;5016691;28;20137;-76
2023/06/25 02:44:37;;;;;;;26.25;16.60;;;;;;;19.29;100.00;101880.53;5024143;28;20028;-76
2023/06/25 02:47:03;;;;;;;25.00;16.30;;;;;;;19.26;100.00;101883.72;5013349;28;20038;-76
2023/06/25 02:49:28;;;;;;;27.42;16.83;;;;;;;19.25;100.00;101882.03;5014256;28;20349;-76
2023/06/25 02:51:53;;;;;;;24.17;16.17;;;;;;;19.26;100.00;101885.59;4995839;28;20025;-77
2023/06/25 02:54:19;;;;;;;25.50;17.33;;;;;;;19.30;100.00;101884.13;5014770;28;20140;-76
2023/06/25 02:56:44;;;;;;;26.90;17.60;;;;;;;19.28;100.00;101881.59;5015956;28;20050;-76
2023/06/25 02:59:09;;;;;;;24.67;17.33;;;;;;;19.26;100.00;101877.41;5014634;28;21264;-76
2023/06/25 03:01:35;;;;;;;30.40;17.30;;;;;;;19.21;100.00;101886.25;5015338;28;20022;-76
2023/06/25 03:04:00;;;;;;;29.30;17.02;;;;;;;19.18;100.00;101885.84;5014846;28;20026;-77
2023/06/25 03:06:26;;;;;;;23.52;17.48;;;;;;;19.21;100.00;101888.13;5014564;28;20026;-77
2023/06/25 03:08:51;;;;;;;26.50;17.25;;;;;;;19.24;100.00;101879.50;5013568;28;20148;-77
2023/06/25 03:11:16;;;;;;;25.67;17.20;;;;;;;19.14;100.00;101882.72;4995866;28;20466;-76
2023/06/25 03:13:42;;;;;;;28.60;16.73;;;;;;;19.08;100.00;101876.19;5015743;28;20049;-76
2023/06/25 03:16:07;;;;;;;26.65;17.58;;;;;;;19.02;100.00;101882.50;5013836;28;20113;-76
2023/06/25 03:18:32;;;;;;;30.52;18.27;;;;;;;19.06;100.00;101883.78;5014818;28;20474;-77
2023/06/25 03:20:58;;;;;;;29.77;16.80;;;;;;;19.07;100.00;101876.41;4998429;28;20113;-77
2023/06/25 03:23:23;;;;;;;28.17;17.52;;;;;;;19.08;100.00;101876.19;5015795;28;20030;-76
2023/06/25 03:25:48;;;;;;;27.83;17.95;;;;;;;19.02;100.00;101871.59;5011715;28;20373;-77
2023/06/25 03:28:14;;;;;;;26.15;17.08;;;;;;;19.01;100.00;101872.66;5012480;28;20026;-76
2023/06/25 03:30:39;;;;;;;30.60;19.23;;;;;;;18.96;100.00;101879.81;5013044;28;20021;-76
2023/06/25 03:33:04;;;;;;;29.98;18.90;;;;;;;18.90;100.00;101870.56;5012734;28;20037;-77
2023/06/25 03:35:30;;;;;;;32.45;19.30;;;;;;;18.88;100.00;101869.09;5013722;28;20489;-77
2023/06/25 03:37:55;;;;;;;31.10;18.42;;;;;;;18.85;100.00;101876.66;5000874;28;20026;-76
2023/06/25 03:40:21;;;;;;;30.73;18.80;;;;;;;18.84;100.00;101869.53;5013214;28;20109;-75
2023/06/25 03:42:46;;;;;;;30.83;18.52;;;;;;;18.79;100.00;101866.59;5013581;28;20030;-77
2023/06/25 03:45:13;;;;;;;34.10;18.70;;;;;;;18.80;100.00;101872.88;5014459;28;20165;-77
2023/06/25 03:47:40;;;;;;;30.27;18.30;;;;;;;18.78;100.00;101867.66;5014676;28;20083;-76
2023/06/25 03:50:06;;;;;;;26.67;17.70;;;;;;;18.78;100.00;101869.53;5014781;28;20073;-77
2023/06/25 03:52:31;;;;;;;30.73;18.40;;;;;;;18.80;100.00;101875.59;5013010;28;20084;-77
2023/06/25 03:54:56;;;;;;;31.00;18.75;;;;;;;18.81;100.00;101866.38;5012937;28;20034;-76
2023/06/25 03:57:23;;;;;;;29.83;18.65;;;;;;;18.84;100.00;101865.97;5014150;28;20034;-77
2023/06/25 03:59:48;;;;;;;31.88;18.42;;;;;;;18.87;100.00;101865.53;5008636;28;20092;-76
2023/06/25 04:02:14;;;;;;;28.10;17.15;;;;;;;18.95;100.00;101859.84;4995687;28;20026;-77
2023/06/25 04:04:39;;;;;;;30.00;18.13;;;;;;;18.95;100.00;101859.03;4995286;28;20033;-76
2023/06/25 04:07:05;;;;;;;32.58;19.17;;;;;;;18.94;100.00;101869.09;4995442;28;20032;-76
2023/06/25 04:09:30;;;;;;;30.00;18.50;;;;;;;18.98;100.00;101861.31;4993368;28;20034;-76
2023/06/25 04:11:56;;;;;;;29.88;18.38;;;;;;;19.01;100.00;101869.06;5003560;28;20468;-77
2023/06/25 04:14:21;;;;;;;32.15;19.23;;;;;;;19.06;100.00;101870.13;5014482;28;20061;-76
2023/06/25 04:16:46;;;;;;;27.95;18.02;;;;;;;19.13;100.00;101861.09;5014350;28;20026;-77
2023/06/25 04:19:12;;;;;;;30.20;17.83;;;;;;;19.19;100.00;101850.13;5014402;28;20036;-77
2023/06/25 04:21:37;;;;;;;28.15;18.00;;;;;;;19.30;100.00;101860.41;5013001;28;20017;-77
2023/06/25 04:24:03;;;;;;;28.67;17.20;;;;;;;19.37;100.00;101859.53;4996009;28;20022;-77
2023/06/25 04:26:29;;;;;;;31.83;17.52;;;;;;;19.37;100.00;101862.25;5013253;28;20033;-76
2023/06/25 04:28:54;;;;;;;25.83;17.23;;;;;;;19.41;100.00;101861.63;5012411;28;20033;-77
2023/06/25 04:31:23;;;;;;;27.77;16.95;;;;;;;19.46;100.00;101855.53;5013055;28;20037;-76
2023/06/25 04:33:48;;;;;;;23.23;16.65;;;;;;;19.56;100.00;101855.88;5013684;28;20397;-76
2023/06/25 04:36:14;;;;;;;33.72;16.63;;;;;;;19.65;100.00;101848.28;5013231;28;20034;-76
2023/06/25 04:38:40;;;;;;;21.23;15.90;;;;;;;19.73;100.00;101851.63;5012448;28;20025;-77
2023/06/25 04:41:05;;;;;;;25.40;15.93;;;;;;;19.81;100.00;101842.34;5015573;28;20080;-76
2023/06/25 04:43:30;;;;;;;26.98;15.95;;;;;;;19.92;100.00;101836.16;5012647;28;20030;-76
2023/06/25 04:45:56;;;;;;;27.20;16.20;;;;;;;19.98;100.00;101830.88;5013639;28;20057;-76
2023/06/25 04:48:21;;;;;;;25.50;15.27;;;;;;;20.01;100.00;101835.91;5011551;28;20397;-75
2023/06/25 04:50:47;;;;;;;24.42;15.35;;;;;;;20.04;100.00;101832.75;4993543;28;20117;-77
2023/06/25 04:53:12;;;;;;;28.63;16.92;;;;;;;20.04;100.00;101832.75;5014893;28;20038;-77
2023/06/25 04:55:37;;;;;;;24.80;16.00;;;;;;;20.12;100.00;101829.75;5014277;28;20045;-77
2023/06/25 04:58:03;;;;;;;26.23;16.67;;;;;;;20.22;100.00;101830.09;5011994;28;20037;-76
2023/06/25 05:00:28;;;;;;;24.30;15.38;;;;;;;20.25;100.00;101821.44;5011235;28;20034;-77
2023/06/25 05:02:53;;;;;;;28.10;16.92;;;;;;;20.26;100.00;101823.09;5011892;28;20030;-76
2023/06/25 05:05:19;;;;;;;26.95;15.55;;;;;;;20.37;100.00;101816.91;5011765;28;20036;-77
2023/06/25 05:07:44;;;;;;;26.48;16.30;;;;;;;20.46;100.00;101819.38;5011831;28;20076;-77
2023/06/25 05:10:10;;;;;;;23.77;16.27;;;;;;;20.53;100.00;101818.25;5012468;28;20625;-76
2023/06/25 05:12:35;;;;;;;22.98;15.32;;;;;;;20.53;100.00;101822.88;5011549;28;20120;-76
2023/06/25 05:15:00;;;;;;;22.55;13.43;;;;;;;20.59;100.00;101822.03;5019641;28;20033;-77
2023/06/25 05:17:26;;;;;;;21.95;14.90;;;;;;;20.66;100.00;101828.25;5017144;28;20033;-76
2023/06/25 05:19:51;;;;;;;24.50;16.13;;;;;;;20.71;100.00;101822.13;5012146;28;20025;-77
2023/06/25 05:22:17;;;;;;;27.23;15.60;;;;;;;20.80;100.00;101827.09;5010642;28;20034;-76
2023/06/25 05:24:42;;;;;;;25.85;16.17;;;;;;;20.74;100.00;101825.22;5009116;28;20099;-77
2023/06/25 05:27:07;;;;;;;24.15;16.00;;;;;;;20.66;100.00;101822.78;4992781;28;20116;-76
2023/06/25 05:29:33;;;;;;;27.50;16.98;;;;;;;20.69;100.00;101816.84;5009017;28;20132;-77
2023/06/25 05:31:58;;;;;;;24.65;16.17;;;;;;;20.69;100.00;101811.38;5009423;28;20040;-76
2023/06/25 05:34:24;;;;;;;30.17;16.35;;;;;;;20.58;100.00;101815.72;4993573;28;20038;-77
2023/06/25 05:36:49;;;;;;;22.08;15.95;;;;;;;20.59;100.00;101822.03;4992891;28;20030;-77
2023/06/25 05:39:15;;;;;;;25.75;15.40;;;;;;;20.72;100.00;101816.44;5008570;28;20034;-78
2023/06/25 05:41:40;;;;;;;25.45;14.52;;;;;;;20.80;100.00;101821.59;5010422;28;20136;-76
2023/06/25 05:44:06;;;;;;;22.77;15.65;;;;;;;20.87;100.00;101813.31;5010633;28;20033;-77
2023/06/25 05:46:32;;;;;;;24.55;16.10;;;;;;;21.01;100.00;101816.72;5009053;28;20034;-76
2023/06/25 05:48:57;;;;;;;21.52;15.00;;;;;;;20.97;100.00;101807.31;5009690;28;20029;-77
2023/06/25 05:51:22;;;;;;;24.15;15.55;;;;;;;21.08;100.00;101809.28;5009401;28;20473;-77
2023/06/25 05:53:50;;;;;;;22.85;15.23;;;;;;;21.29;100.00;101809.91;5009107;28;20046;-77
2023/06/25 05:56:16;;;;;;;21.42;14.50;;;;;;;21.27;100.00;101797.28;5008880;28;20496;-77
2023/06/25 05:58:41;;;;;;;22.50;14.45;;;;;;;21.36;100.00;101800.53;4992690;28;20044;-77
2023/06/25 06:01:07;;;;;;;20.65;13.35;;;;;;;21.52;100.00;101798.25;5011211;28;20092;-76
2023/06/25 06:03:32;;;;;;;22.33;14.10;;;;;;;21.60;100.00;101797.94;5014127;28;20203;-77
2023/06/25 06:05:58;;;;;;;18.58;13.68;;;;;;;21.74;100.00;101801.31;5010759;28;20057;-76
2023/06/25 06:08:24;;;;;;;19.80;13.50;;;;;;;21.82;100.00;101790.00;5018655;28;20549;-77
2023/06/25 06:10:50;;;;;;;23.25;14.77;;;;;;;21.83;100.00;101791.69;5018534;28;20394;-77
2023/06/25 06:13:16;;;;;;;21.50;13.18;;;;;;;21.87;100.00;101781.94;5012243;28;20389;-77
2023/06/25 06:15:41;;;;;;;26.55;14.25;;;;;;;22.07;100.00;101785.19;5010694;28;20041;-76
2023/06/25 06:18:08;;;;;;;17.55;12.73;;;;;;;22.23;100.00;101777.38;5009735;28;20179;-76
2023/06/25 06:20:34;;;;;;;18.95;13.00;;;;;;;22.38;100.00;101776.91;5007936;28;20104;-76
2023/06/25 06:23:01;;;;;;;17.30;12.45;;;;;;;22.46;100.00;101777.41;5007589;28;20034;-76
2023/06/25 06:25:27;;;;;;;22.17;13.45;;;;;;;22.58;100.00;101766.41;5002109;28;20060;-77
2023/06/25 06:27:54;;;;;;;20.90;12.18;;;;;;;22.68;100.00;101760.31;4988980;28;20464;-76
2023/06/25 06:30:20;;;;;;;;;;;;;;;22.88;100.00;101760.78;5010097;28;20045;-75
2023/06/25 06:32:45;;;;;;;16.20;10.63;;;;;;;23.10;100.00;101765.63;5011307;28;20318;-77
2023/06/25 06:35:11;;;;;;;23.40;12.02;;;;;;;23.34;100.00;101766.38;5012032;28;20087;-77
2023/06/25 06:37:36;;;;;;;17.13;11.63;;;;;;;23.59;100.00;101757.78;5011167;28;20030;-77
2023/06/25 06:40:02;;;;;;;14.95;10.38;;;;;;;23.88;100.00;101761.34;5011153;28;20488;-76
2023/06/25 06:42:27;;;;;;;13.98;10.80;;;;;;;24.21;100.00;101762.44;5009591;28;20041;-77
2023/06/25 06:44:53;;;;;;;15.80;10.65;;;;;;;24.42;100.00;101750.66;5011798;28;20022;-76
2023/06/25 06:47:18;;;;;;;17.05;10.82;;;;;;;24.48;100.00;101751.59;5013378;28;20496;-77
2023/06/25 06:49:43;;;;;;;16.20;11.00;;;;;;;24.48;100.00;101748.84;5020160;28;20125;-77
2023/06/25 06:52:09;;;;;;;16.20;9.95;;;;;;;24.44;100.00;101754.03;5016926;28;20026;-77
2023/06/25 06:54:34;;;;;;;15.95;9.07;;;;;;;24.34;100.00;101739.28;5000919;28;20061;-77
2023/06/25 06:57:00;;;;;;;15.45;9.52;;;;;;;24.39;100.00;101739.34;5017871;28;20056;-77
2023/06/25 06:59:25;;;;;;;14.23;8.40;;;;;;;24.48;100.00;101740.59;5019390;28;20347;-77
2023/06/25 07:01:50;;;;;;;13.38;8.27;;;;;;;24.68;100.00;101743.63;5015002;28;20438;-77
2023/06/25 07:04:16;;;;;;;12.30;8.45;;;;;;;25.14;100.00;101735.94;5018921;28;20022;-77
2023/06/25 07:06:41;;;;;;;12.07;7.75;;;;;;;25.50;100.00;101744.63;5019694;28;20034;-77
2023/06/25 07:09:07;;;;;;;12.23;8.20;;;;;;;26.22;100.00;101735.06;4995444;28;20038;-77
2023/06/25 07:11:32;;;;;;;13.57;8.65;;;;;;;26.54;98.23;101736.97;5018048;28;20141;-77
2023/06/25 07:13:57;;;;;;;12.65;8.02;;;;;;;27.49;92.85;101747.00;5019891;28;20092;-77
2023/06/25 07:16:23;;;;;;;12.23;7.85;;;;;;;27.84;89.40;101737.94;5017919;28;20066;-77
2023/06/25 07:18:48;;;;;;;10.18;7.40;;;;;;;28.17;86.68;101739.31;5019943;28;20038;-76
2023/06/25 07:21:13;;;;;;;10.15;6.97;;;;;;;28.67;86.34;101740.34;5016061;28;20026;-77
2023/06/25 07:23:39;;;;;;;8.40;5.60;;;;;;;29.83;81.31;101741.91;5014852;28;20033;-76
2023/06/25 07:26:04;;;;;;;9.80;6.20;;;;;;;31.11;77.37;101739.75;5008736;28;20034;-75
2023/06/25 07:28:30;;;;;;;11.57;7.00;;;;;;;31.88;71.84;101748.59;5008049;28;20057;-76
2023/06/25 07:30:55;;;;;;;11.37;6.53;;;;;;;31.71;68.26;101742.78;5011269;28;20112;-76
2023/06/25 07:33:20;;;;;;;6.60;5.50;;;;;;;32.36;68.74;101739.13;5011153;28;20357;-76
2023/06/25 07:35:46;;;;;;;9.97;6.60;;;;;;;31.53;67.10;101738.88;5010625;28;20060;-76
2023/06/25 07:38:11;;;;;;;7.00;5.00;;;;;;;32.61;67.56;101739.81;5012367;28;20072;-76
2023/06/25 07:40:37;;;;;;;8.27;5.00;;;;;;;32.19;62.46;101736.97;5011072;28;20036;-76
2023/06/25 07:43:03;;;;;;;5.20;4.67;;;;;;;31.77;61.48;101740.72;5012594;28;20038;-76
2023/06/25 07:45:28;;;;;;;5.10;4.57;;;;;;;31.54;61.95;101732.19;5012213;28;20054;-76
2023/06/25 07:47:55;;;;;;;5.40;4.63;;;;;;;31.85;60.96;101731.69;4999242;28;20045;-76
2023/06/25 07:50:20;;;;;;;;;;;;;;;32.16;59.00;101728.41;5029452;28;20157;-76
2023/06/25 07:52:46;;;;;;;9.20;5.27;;;;;;;31.71;61.24;101724.13;5028244;28;19928;-76
2023/06/25 07:55:11;;;;;;;5.50;4.77;;;;;;;32.52;59.48;101731.38;5027888;28;20104;-77
2023/06/25 07:57:36;;;;;;;6.23;4.23;;;;;;;32.39;59.05;101723.75;5030669;28;20054;-76
2023/06/25 08:00:03;;;;;;;6.33;4.40;;;;;;;32.81;58.66;101719.88;5025225;28;20044;-76
2023/06/25 08:02:28;;;;;;;5.07;4.20;;;;;;;34.09;54.91;101714.91;5019713;28;20036;-76
2023/06/25 08:04:53;;;;;;;5.73;4.40;;;;;;;33.99;52.72;101725.50;5023418;28;20045;-76
2023/06/25 08:07:19;;;;;;;8.43;4.83;;;;;;;33.85;50.72;101715.22;5023171;28;20437;-76
2023/06/25 08:09:45;;;;;;;9.03;4.73;;;;;;;33.28;51.45;101711.31;5015918;28;20575;-76
2023/06/25 08:12:10;;;;;;;7.18;5.00;;;;;;;33.29;52.04;101716.59;5013602;28;20029;-76
2023/06/25 08:14:36;;;;;;;13.17;3.53;;;;;;;32.61;48.92;101709.97;5017723;28;20048;-75
2023/06/25 08:17:01;;;;;;;3.70;2.80;;;;;;;32.79;47.88;101711.00;5023340;28;20029;-74
2023/06/25 08:19:27;;;;;;;7.00;3.43;;;;;;;33.39;43.35;101710.78;5016715;28;20045;-76
2023/06/25 08:21:52;;;;;;;4.87;3.90;;;;;;;32.87;43.73;101710.25;5013493;28;20033;-76
2023/06/25 08:24:17;;;;;;;4.00;3.10;;;;;;;32.69;43.44;101711.22;5019427;28;20060;-76
2023/06/25 08:26:43;;;;;;;4.77;4.20;;;;;;;32.40;44.58;101709.53;5014631;28;20037;-77
2023/06/25 08:29:08;;;;;;;4.10;3.33;;;;;;;33.27;43.82;101701.31;5013738;28;20052;-77
2023/06/25 08:31:34;;;;;;;6.70;3.57;;;;;;;32.95;43.58;101703.94;5012913;28;20480;-76
2023/06/25 08:33:59;;;;;;;4.23;3.10;;;;;;;34.09;42.31;101697.31;4978820;28;20052;-77
2023/06/25 08:36:24;;;;;;;7.40;3.43;;;;;;;33.72;42.07;101693.78;5012259;28;20026;-77
2023/06/25 08:38:50;;;;;;;5.80;3.20;;;;;;;33.86;40.93;101694.56;5010774;28;20683;-75
2023/06/25 08:41:15;;;;;;;5.33;3.40;;;;;;;32.99;41.86;101691.03;5011202;28;20037;-77
2023/06/25 08:43:41;;;;;;;4.33;3.30;;;;;;;33.56;42.67;101698.13;5012591;28;20076;-76
2023/06/25 08:46:08;;;;;;;5.63;3.60;;;;;;;33.59;41.35;101686.31;5010994;28;20037;-76
2023/06/25 08:48:34;;;;;;;9.75;3.20;;;;;;;34.00;40.50;101693.63;5012509;28;20033;-76
2023/06/25 08:51:05;;;;;;;6.60;3.58;;;;;;;33.77;40.37;101690.88;5011197;28;20026;-75
2023/06/25 08:53:31;;;;;;;8.77;3.92;;;;;;;33.01;41.10;101690.75;5011129;28;20449;-76
2023/06/25 08:55:57;;;;;;;5.93;3.67;;;;;;;33.31;40.17;101683.63;5011203;28;20046;-76
2023/06/25 08:58:24;;;;;;;5.35;3.20;;;;;;;33.73;40.53;101677.84;5010947;28;20036;-77
2023/06/25 09:00:50;;;;;;;6.85;3.17;;;;;;;33.26;37.90;101678.19;5011943;28;20042;-77
2023/06/25 09:03:15;;;;;;;5.65;3.20;;;;;;;33.65;37.56;101677.50;5010915;28;20085;-77
2023/06/25 09:05:53;;;;;;;3.87;3.10;;;;;;;34.64;37.80;101668.94;5010644;28;20476;-76
2023/06/25 09:08:20;;;;;;;10.48;3.35;;;;;;;34.93;36.07;101684.28;4993803;28;20108;-78
2023/06/25 09:10:51;;;;;;;4.35;3.13;;;;;;;33.88;34.94;101664.31;5010910;28;20104;-77
2023/06/25 09:13:27;;;;;;;3.92;3.28;;;;;;;34.32;35.78;101667.34;4993633;28;20141;-77
2023/06/25 09:16:00;;;;;;;8.07;3.72;;;;;;;34.18;34.94;101666.63;5012096;28;20060;-78
2023/06/25 09:18:25;;;;;;;4.63;3.20;;;;;;;34.59;34.97;101660.69;4993791;28;20037;-78
2023/06/25 09:20:51;;;;;;;5.17;3.40;;;;;;;34.38;35.81;101665.22;5010730;28;20389;-77
2023/06/25 09:23:20;;;;;;;8.37;3.20;;;;;;;33.82;34.99;101676.78;5011893;28;20038;-77
2023/06/25 09:25:46;;;;;;;6.28;3.85;;;;;;;33.50;36.45;101669.50;5011027;28;20037;-77
2023/06/25 09:28:11;;;;;;;6.23;3.60;;;;;;;34.21;36.86;101671.59;5010734;28;20044;-77
2023/06/25 09:30:39;;;;;;;7.27;3.47;;;;;;;34.39;36.54;101664.06;5010992;28;20026;-77
2023/06/25 09:33:05;;;;;;;7.63;3.80;;;;;;;34.43;35.37;101667.88;5010462;28;20045;-77
2023/06/25 09:35:30;;;;;;;;;;;;;;;33.63;35.93;101662.22;5012692;28;20046;-77
2023/06/25 09:37:56;;;;;;;4.17;3.33;;;;;;;33.30;37.00;101659.66;5011200;28;19909;-79
2023/06/25 09:40:22;;;;;;;7.40;3.90;;;;;;;33.57;37.87;101657.88;5009291;28;20120;-76
2023/06/25 09:42:50;;;;;;;5.40;3.80;;;;;;;34.25;36.42;101648.25;5009925;28;20040;-76
2023/06/25 09:45:16;;;;;;;8.43;4.20;;;;;;;34.99;35.39;101652.19;5010056;28;20440;-77
2023/06/25 09:47:43;;;;;;;4.03;3.33;;;;;;;34.30;35.63;101647.28;5011399;28;20054;-78
2023/06/25 09:50:18;;;;;;;4.57;3.90;;;;;;;34.21;35.74;101654.81;4996449;28;20026;-77
2023/06/25 09:52:50;;;;;;;5.47;3.70;;;;;;;34.74;35.13;101646.25;5010332;28;20499;-77
2023/06/25 09:55:16;;;;;;;4.28;3.67;;;;;;;34.48;33.28;101642.56;5011960;28;20140;-77
2023/06/25 09:57:42;;;;;;;7.10;3.38;;;;;;;35.18;32.67;101647.13;5009497;28;20136;-77
2023/06/25 10:00:09;;;;;;;5.03;3.67;;;;;;;34.96;33.03;101638.88;4992076;28;20057;-78
2023/06/25 10:02:34;;;;;;;;;;;;;;;34.26;34.28;101641.53;4993422;28;20030;-77
2023/06/25 10:04:59;;;;;;;7.40;3.70;;;;;;;34.69;34.01;101649.22;5010296;28;19924;-76
2023/06/25 10:07:26;;;;;;;8.17;3.93;;;;;;;33.54;33.76;101647.38;5011770;28;20030;-77
2023/06/25 10:09:55;;;;;;;4.22;3.20;;;;;;;33.87;34.98;101640.34;5010276;28;20452;-76
2023/06/25 10:12:20;;;;;;;4.68;3.47;;;;;;;34.15;35.09;101636.53;5009698;28;20384;-77
2023/06/25 10:14:47;;;;;;;6.97;3.43;;;;;;;34.26;33.69;101630.34;5010379;28;20028;-77
2023/06/25 10:17:14;;;;;;;6.50;3.80;;;;;;;34.06;33.96;101620.56;5008627;28;20716;-77
2023/06/25 10:19:49;;;;;;;;;;;;;;;33.86;34.01;101629.47;4995282;28;20038;-77
2023/06/25 10:22:16;;;;;;;4.95;3.55;;;;;;;33.45;35.43;101627.75;5008676;28;20376;-77
2023/06/25 10:24:48;;;;;;;5.78;3.13;;;;;;;34.14;35.03;101618.97;5010112;28;20045;-77
2023/06/25 10:27:24;;;;;;;8.68;3.30;;;;;;;34.29;34.27;101620.50;5011775;28;20037;-76
2023/06/25 10:29:50;;;;;;;7.05;3.17;;;;;;;34.49;34.00;101613.47;5010614;28;20469;-77
2023/06/25 10:32:23;;;;;;;4.88;3.50;;;;;;;34.10;34.16;101606.81;5011866;28;20029;-77
2023/06/25 10:35:07;;;;;;;7.30;3.75;;;;;;;34.11;34.16;101605.66;5010241;28;20361;-76
2023/06/25 10:37:34;;;;;;;5.45;3.85;;;;;;;32.94;35.81;101601.94;5009051;28;20030;-76
2023/06/25 10:40:05;;;;;;;5.68;3.30;;;;;;;33.80;35.90;101595.28;5007130;28;20025;-77
2023/06/25 10:42:31;;;;;;;5.88;3.50;;;;;;;33.60;35.28;101593.91;5009657;28;20488;-78
2023/06/25 10:44:57;;;;;;;6.18;3.72;;;;;;;33.71;35.08;101588.88;5010007;28;20037;-77
2023/06/25 10:47:22;;;;;;;4.78;3.58;;;;;;;34.00;35.10;101593.09;5009191;28;20056;-76
2023/06/25 10:49:47;;;;;;;6.77;4.17;;;;;;;33.85;35.18;101581.19;5009517;28;20061;-79
2023/06/25 10:52:13;;;;;;;6.63;3.80;;;;;;;33.87;36.34;101578.91;5010120;28;20062;-76
2023/06/25 10:54:39;;;;;;;6.73;3.80;;;;;;;34.39;34.77;101583.03;5011730;28;20042;-78
2023/06/25 10:57:08;;;;;;;7.37;4.07;;;;;;;33.86;35.00;101582.00;5008763;28;20529;-77
2023/06/25 10:59:34;;;;;;;7.15;4.15;;;;;;;33.99;35.06;101580.25;5006867;28;20038;-77
2023/06/25 11:02:20;;;;;;;5.03;3.90;;;;;;;33.81;35.19;101573.78;5010151;28;20014;-76
2023/06/25 11:04:54;;;;;;;7.03;4.00;;;;;;;34.88;34.56;101578.16;5008599;28;20460;-76
2023/06/25 11:07:20;;;;;;;6.57;3.92;;;;;;;34.78;35.35;101567.31;5011455;28;20508;-76